Time;durP1;ratioP1;P1;durP2;ratioP2;P2;SDS_P1;SDS_P2;PMS_P1;PMS_P2;Temp;Humidity;BMP_temperature;BMP_pressure;BME280_temperature;BME280_humidity;BME280_pressure;Samples;Min_cycle;Max_cycle;Signal;HPM_P1;HPM_P2
2021/08/10 00:01:04;;;;;;;0.10;0.10;;;16.80;99.10;;;;;;5033738;28;20029;-77
2021/08/10 00:03:30;;;;;;;0.10;0.10;;;16.80;99.10;;;;;;5032178;28;20083;-77
2021/08/10 00:05:56;;;;;;;0.10;0.10;;;16.80;99.10;;;;;;5034254;28;20037;-77
2021/08/10 00:08:21;;;;;;;0.10;0.10;;;16.80;99.10;;;;;;5033140;28;20104;-77
2021/08/10 00:10:49;;;;;;;0.10;0.10;;;16.80;99.10;;;;;;5033984;28;20503;-77
2021/08/10 00:13:17;;;;;;;0.10;0.10;;;16.70;99.10;;;;;;5033351;28;20117;-77
2021/08/10 00:15:43;;;;;;;0.00;0.00;;;16.70;99.10;;;;;;5032665;28;20025;-77
2021/08/10 00:18:09;;;;;;;0.10;0.10;;;16.70;99.10;;;;;;5033057;28;20025;-78
2021/08/10 00:20:36;;;;;;;0.10;0.10;;;16.70;99.10;;;;;;5032397;28;20026;-77
2021/08/10 00:23:02;;;;;;;0.10;0.10;;;16.70;99.10;;;;;;5031914;28;20136;-76
2021/08/10 00:25:29;;;;;;;0.10;0.10;;;16.70;99.10;;;;;;5031791;28;20133;-77
2021/08/10 00:27:56;;;;;;;0.10;0.10;;;16.70;99.10;;;;;;5033599;28;20079;-77
2021/08/10 00:30:22;;;;;;;0.10;0.10;;;16.70;99.10;;;;;;5031629;28;20033;-77
2021/08/10 00:32:48;;;;;;;0.10;0.10;;;16.70;99.00;;;;;;5033502;28;20022;-76
2021/08/10 00:35:14;;;;;;;0.10;0.10;;;16.70;99.10;;;;;;5032349;28;20071;-77
2021/08/10 00:37:40;;;;;;;0.10;0.10;;;16.70;99.10;;;;;;5033130;28;20025;-77
2021/08/10 00:40:06;;;;;;;0.10;0.10;;;16.70;99.10;;;;;;5033111;28;20033;-76
2021/08/10 00:42:32;;;;;;;0.10;0.10;;;16.60;99.10;;;;;;5032678;28;20024;-77
2021/08/10 00:44:58;;;;;;;0.10;0.10;;;16.70;99.10;;;;;;5032998;28;20025;-77
2021/08/10 00:47:23;;;;;;;0.10;0.10;;;16.60;99.10;;;;;;5030908;28;20549;-78
2021/08/10 00:49:49;;;;;;;0.05;0.05;;;16.70;99.10;;;;;;5033510;28;20148;-77
2021/08/10 00:52:15;;;;;;;0.10;0.10;;;16.60;99.10;;;;;;5031197;28;20054;-77
2021/08/10 00:54:41;;;;;;;0.10;0.10;;;16.70;99.40;;;;;;5031941;28;20021;-77
2021/08/10 00:57:07;;;;;;;0.10;0.10;;;16.70;99.20;;;;;;5031907;28;20082;-76
2021/08/10 00:59:33;;;;;;;0.10;0.10;;;16.70;99.10;;;;;;5030982;28;20025;-77
2021/08/10 01:01:59;;;;;;;0.10;0.10;;;16.60;99.10;;;;;;5031564;28;20028;-77
2021/08/10 01:04:25;;;;;;;0.17;0.10;;;16.70;99.10;;;;;;5032606;28;20030;-77
2021/08/10 01:07:09;;;;;;;0.10;0.10;;;16.60;99.00;;;;;;5032921;28;20500;-77
2021/08/10 01:09:45;;;;;;;0.10;0.10;;;16.60;99.10;;;;;;5031022;28;20083;-77
2021/08/10 01:12:16;;;;;;;0.10;0.10;;;16.60;99.00;;;;;;5031554;28;20037;-77
2021/08/10 01:15:08;;;;;;;0.13;0.13;;;16.60;99.10;;;;;;5032719;28;20013;-77
2021/08/10 01:17:57;;;;;;;0.10;0.10;;;16.60;99.10;;;;;;5031889;28;20052;-77
2021/08/10 01:20:51;;;;;;;0.10;0.10;;;16.60;99.00;;;;;;5024931;28;20126;-76
2021/08/10 01:23:21;;;;;;;0.10;0.10;;;16.60;99.00;;;;;;5030519;28;20053;-76
2021/08/10 01:26:21;;;;;;;0.10;0.10;;;16.60;99.30;;;;;;5031255;28;20075;-76
2021/08/10 01:28:58;;;;;;;0.10;0.10;;;16.60;99.00;;;;;;5032293;28;20079;-77
2021/08/10 01:31:26;;;;;;;0.10;0.10;;;16.60;99.00;;;;;;5030565;28;20017;-77
2021/08/10 01:34:01;;;;;;;0.10;0.10;;;16.60;99.00;;;;;;5032361;28;20045;-77
2021/08/10 01:36:28;;;;;;;0.10;0.10;;;16.60;99.00;;;;;;5031922;28;20025;-77
2021/08/10 01:38:59;;;;;;;0.10;0.10;;;16.60;99.00;;;;;;5030993;28;20028;-77
2021/08/10 01:41:26;;;;;;;0.10;0.10;;;16.60;99.00;;;;;;5031742;28;20537;-77
2021/08/10 01:43:54;;;;;;;0.20;0.20;;;16.60;99.00;;;;;;5030592;28;20059;-77
2021/08/10 01:46:23;;;;;;;0.10;0.10;;;16.50;99.00;;;;;;5030388;28;20025;-77
2021/08/10 01:48:50;;;;;;;0.10;0.10;;;16.50;99.00;;;;;;5030886;28;20458;-77
2021/08/10 01:51:16;;;;;;;0.10;0.10;;;16.50;99.00;;;;;;5031599;28;20018;-77
2021/08/10 01:53:42;;;;;;;0.10;0.10;;;16.50;99.00;;;;;;5032385;28;20098;-77
2021/08/10 01:56:09;;;;;;;0.10;0.10;;;16.50;99.00;;;;;;5030613;28;20109;-77
2021/08/10 01:58:37;;;;;;;0.10;0.10;;;16.50;99.00;;;;;;5030029;28;20033;-77
2021/08/10 02:01:03;;;;;;;0.10;0.10;;;16.50;99.00;;;;;;5030609;28;20037;-77
2021/08/10 02:03:30;;;;;;;0.10;0.10;;;16.60;99.00;;;;;;5031044;28;20024;-77
2021/08/10 02:05:57;;;;;;;0.10;0.10;;;16.60;99.00;;;;;;5030808;28;20054;-77
2021/08/10 02:08:23;;;;;;;0.10;0.10;;;16.60;98.90;;;;;;5030916;28;20022;-77
2021/08/10 02:10:51;;;;;;;0.10;0.10;;;16.60;98.90;;;;;;5031828;28;20034;-76
2021/08/10 02:13:17;;;;;;;0.10;0.10;;;16.60;98.80;;;;;;5030053;28;20033;-77
2021/08/10 02:15:45;;;;;;;0.10;0.10;;;16.60;98.80;;;;;;5030604;28;20022;-77
2021/08/10 02:18:11;;;;;;;0.10;0.10;;;16.60;98.80;;;;;;5030583;28;20026;-77
2021/08/10 02:20:39;;;;;;;0.10;0.10;;;16.70;98.80;;;;;;5029745;28;20060;-77
2021/08/10 02:23:08;;;;;;;0.22;0.13;;;16.70;98.80;;;;;;5031557;28;20465;-76
2021/08/10 02:25:35;;;;;;;0.10;0.10;;;16.60;98.80;;;;;;5031137;28;20044;-77
2021/08/10 02:28:02;;;;;;;0.10;0.10;;;16.60;98.80;;;;;;5031446;28;20025;-76
2021/08/10 02:30:43;;;;;;;0.20;0.20;;;16.60;98.80;;;;;;5029632;28;20029;-77
2021/08/10 02:33:10;;;;;;;0.10;0.10;;;16.60;98.80;;;;;;5030570;28;20017;-77
2021/08/10 02:35:38;;;;;;;0.20;0.20;;;16.60;98.80;;;;;;5029737;28;20032;-77
2021/08/10 02:38:09;;;;;;;0.10;0.10;;;16.60;98.80;;;;;;5030432;28;20017;-76
2021/08/10 02:40:37;;;;;;;0.10;0.10;;;16.60;98.80;;;;;;5031104;28;20115;-77
2021/08/10 02:43:05;;;;;;;0.10;0.10;;;16.60;98.80;;;;;;5030425;28;20022;-77
2021/08/10 02:45:34;;;;;;;0.10;0.10;;;16.60;98.80;;;;;;5029786;28;20053;-77
2021/08/10 02:48:01;;;;;;;0.10;0.10;;;16.60;98.90;;;;;;5030310;28;20087;-76
2021/08/10 02:50:29;;;;;;;0.10;0.10;;;16.60;98.90;;;;;;5029791;28;20025;-77
2021/08/10 02:52:55;;;;;;;0.10;0.10;;;16.60;98.90;;;;;;5030885;28;20465;-77
2021/08/10 02:55:22;;;;;;;0.10;0.10;;;16.60;98.90;;;;;;5029765;28;20112;-77
2021/08/10 02:57:47;;;;;;;0.10;0.10;;;16.60;98.90;;;;;;5030318;28;20028;-76
2021/08/10 03:00:14;;;;;;;0.10;0.10;;;16.50;98.90;;;;;;5030085;28;20384;-76
2021/08/10 03:02:48;;;;;;;0.10;0.10;;;16.50;98.90;;;;;;5029506;28;20022;-76
2021/08/10 03:05:20;;;;;;;0.15;0.15;;;16.50;98.90;;;;;;5029937;28;20034;-76
2021/08/10 03:07:56;;;;;;;0.10;0.10;;;16.50;99.00;;;;;;5031633;28;20032;-77
2021/08/10 03:10:24;;;;;;;0.10;0.10;;;16.50;99.00;;;;;;5030491;28;20026;-77
2021/08/10 03:12:51;;;;;;;0.10;0.10;;;16.40;99.00;;;;;;5030019;28;20108;-77
2021/08/10 03:15:22;;;;;;;0.30;0.10;;;16.50;99.00;;;;;;5031764;28;20096;-77
2021/08/10 03:17:50;;;;;;;;;;;16.50;99.00;;;;;;5033613;28;20562;-77
2021/08/10 03:20:20;;;;;;;0.10;0.10;;;16.50;99.00;;;;;;5033559;28;19913;-77
2021/08/10 03:22:46;;;;;;;0.20;0.10;;;16.50;98.90;;;;;;5033305;28;20095;-77
2021/08/10 03:25:15;;;;;;;0.10;0.10;;;16.50;99.00;;;;;;5033182;28;20017;-77
2021/08/10 03:27:41;;;;;;;0.13;0.13;;;16.40;98.90;;;;;;5036655;28;20655;-76
2021/08/10 03:30:08;;;;;;;0.20;0.20;;;16.40;98.90;;;;;;5053064;28;20048;-78
2021/08/10 03:32:35;;;;;;;0.10;0.10;;;16.40;99.00;;;;;;5053670;28;20112;-77
2021/08/10 03:35:05;;;;;;;0.10;0.10;;;16.40;99.00;;;;;;5053430;28;20028;-76
2021/08/10 03:37:31;;;;;;;0.10;0.10;;;16.30;99.00;;;;;;5052497;28;20017;-76
2021/08/10 03:39:58;;;;;;;0.10;0.10;;;16.30;99.00;;;;;;5053080;28;20051;-77
2021/08/10 03:42:25;;;;;;;0.10;0.10;;;16.30;99.00;;;;;;5052500;28;20021;-77
2021/08/10 03:44:51;;;;;;;0.20;0.20;;;16.30;99.00;;;;;;5052968;28;20096;-77
2021/08/10 03:47:18;;;;;;;0.13;0.13;;;16.30;99.00;;;;;;5053073;28;20108;-77
2021/08/10 03:49:47;;;;;;;0.10;0.10;;;16.30;99.00;;;;;;5052354;28;20028;-77
2021/08/10 03:52:14;;;;;;;0.10;0.10;;;16.30;99.00;;;;;;5054136;28;20025;-77
2021/08/10 03:54:41;;;;;;;0.20;0.20;;;16.30;99.00;;;;;;5053178;28;20029;-77
2021/08/10 03:57:10;;;;;;;0.20;0.10;;;16.30;99.00;;;;;;5054192;28;20021;-77
2021/08/10 03:59:36;;;;;;;0.20;0.20;;;16.30;98.90;;;;;;5053571;28;20095;-77
2021/08/10 04:02:04;;;;;;;0.10;0.10;;;16.30;98.90;;;;;;5052813;28;20362;-77
2021/08/10 04:04:30;;;;;;;0.10;0.10;;;16.30;98.90;;;;;;5052229;28;20037;-77
2021/08/10 04:06:56;;;;;;;0.10;0.10;;;16.30;98.90;;;;;;5052404;28;20025;-77
2021/08/10 04:09:22;;;;;;;0.10;0.10;;;16.30;99.00;;;;;;5052613;28;20431;-77
2021/08/10 04:11:48;;;;;;;0.20;0.20;;;16.20;99.00;;;;;;5051932;28;20020;-77
2021/08/10 04:14:15;;;;;;;0.08;0.08;;;16.20;99.00;;;;;;5054066;28;20429;-77
2021/08/10 04:16:49;;;;;;;0.10;0.10;;;16.20;99.00;;;;;;5053160;28;20025;-77
2021/08/10 04:19:18;;;;;;;0.10;0.10;;;16.20;99.00;;;;;;5052267;28;20439;-77
2021/08/10 04:21:44;;;;;;;0.10;0.10;;;16.10;99.00;;;;;;5052957;28;20107;-77
2021/08/10 04:24:09;;;;;;;0.20;0.20;;;16.10;99.00;;;;;;5053783;28;20056;-77
2021/08/10 04:26:36;;;;;;;0.22;0.22;;;16.10;99.00;;;;;;5051745;28;20025;-77
2021/08/10 04:29:02;;;;;;;0.10;0.10;;;16.10;99.00;;;;;;5052396;28;20024;-76
2021/08/10 04:31:28;;;;;;;0.15;0.15;;;16.10;99.10;;;;;;5051564;28;20017;-77
2021/08/10 04:33:53;;;;;;;0.10;0.10;;;16.10;99.10;;;;;;5052144;28;20354;-76
2021/08/10 04:36:19;;;;;;;0.20;0.20;;;16.10;99.10;;;;;;5053467;28;20174;-76
2021/08/10 04:38:45;;;;;;;0.10;0.10;;;16.10;99.10;;;;;;5052843;28;20029;-77
2021/08/10 04:41:10;;;;;;;0.15;0.15;;;16.10;99.10;;;;;;5051988;28;20029;-77
2021/08/10 04:43:36;;;;;;;0.15;0.15;;;16.00;99.00;;;;;;5051373;28;20028;-77
2021/08/10 04:46:02;;;;;;;0.10;0.10;;;16.10;99.00;;;;;;5051775;28;20120;-78
2021/08/10 04:48:27;;;;;;;0.20;0.20;;;16.10;99.00;;;;;;5050758;28;20021;-79
2021/08/10 04:50:53;;;;;;;0.20;0.20;;;16.00;99.00;;;;;;5051162;28;20017;-78
2021/08/10 04:53:18;;;;;;;0.10;0.10;;;16.00;99.00;;;;;;5051553;28;20561;-78
2021/08/10 04:55:45;;;;;;;0.10;0.10;;;16.00;99.00;;;;;;5052381;28;20013;-80
2021/08/10 04:58:11;;;;;;;0.10;0.10;;;16.00;99.00;;;;;;5051149;28;20025;-79
2021/08/10 05:00:37;;;;;;;0.10;0.10;;;16.00;99.00;;;;;;5050110;28;20033;-80
2021/08/10 05:03:03;;;;;;;0.20;0.20;;;16.00;99.00;;;;;;5052312;28;20033;-79
2021/08/10 05:05:30;;;;;;;0.10;0.10;;;16.00;99.00;;;;;;5050732;28;20041;-81
2021/08/10 05:07:55;;;;;;;0.10;0.10;;;16.00;99.00;;;;;;5050794;28;20032;-80
2021/08/10 05:10:21;;;;;;;0.20;0.20;;;16.00;99.00;;;;;;5050846;28;20124;-79
2021/08/10 05:12:47;;;;;;;0.10;0.10;;;16.00;99.00;;;;;;5050681;28;20021;-79
2021/08/10 05:15:13;;;;;;;0.10;0.10;;;16.00;99.00;;;;;;5056487;28;20027;-79
2021/08/10 05:17:38;;;;;;;0.10;0.10;;;16.00;99.00;;;;;;5067228;28;20106;-80
2021/08/10 05:20:05;;;;;;;0.20;0.20;;;16.00;99.00;;;;;;5071027;28;20075;-79
2021/08/10 05:22:31;;;;;;;0.10;0.10;;;16.00;99.00;;;;;;5070205;28;20072;-80
2021/08/10 05:24:56;;;;;;;0.35;0.20;;;16.00;98.90;;;;;;5071197;28;20016;-79
2021/08/10 05:27:23;;;;;;;0.20;0.20;;;16.00;98.90;;;;;;5072193;28;20028;-79
2021/08/10 05:29:49;;;;;;;0.17;0.17;;;16.00;98.90;;;;;;5070167;28;20684;-79
2021/08/10 05:32:15;;;;;;;0.25;0.20;;;16.00;98.90;;;;;;5070301;28;20021;-79
2021/08/10 05:34:40;;;;;;;0.20;0.20;;;16.00;98.90;;;;;;5068945;28;20032;-73
2021/08/10 05:37:07;;;;;;;0.10;0.10;;;16.00;98.90;;;;;;5069923;28;20119;-73
2021/08/10 05:39:33;;;;;;;0.20;0.20;;;16.00;98.90;;;;;;5069205;28;20036;-73
2021/08/10 05:41:58;;;;;;;0.30;0.30;;;16.00;98.90;;;;;;5068176;28;20074;-72
2021/08/10 05:44:24;;;;;;;0.20;0.20;;;16.00;98.90;;;;;;5070002;28;20021;-72
2021/08/10 05:46:50;;;;;;;0.15;0.13;;;16.00;98.90;;;;;;5068007;28;20752;-71
2021/08/10 05:49:15;;;;;;;0.20;0.20;;;16.00;98.80;;;;;;5069390;28;20034;-71
2021/08/10 05:51:41;;;;;;;0.10;0.10;;;16.00;98.80;;;;;;5069238;28;20021;-72
2021/08/10 05:54:12;;;;;;;0.10;0.10;;;16.10;98.80;;;;;;5068489;28;20119;-72
2021/08/10 05:56:38;;;;;;;0.13;0.13;;;16.10;98.80;;;;;;5069356;28;20111;-72
2021/08/10 05:59:04;;;;;;;0.20;0.20;;;16.10;98.80;;;;;;5069379;28;20024;-72
2021/08/10 06:01:30;;;;;;;0.10;0.10;;;16.10;98.80;;;;;;5069203;28;20029;-71
2021/08/10 06:03:55;;;;;;;0.20;0.20;;;16.10;98.70;;;;;;5070616;28;20028;-75
2021/08/10 06:06:21;;;;;;;0.13;0.13;;;16.10;98.70;;;;;;5070316;28;20497;-75
2021/08/10 06:08:47;;;;;;;0.10;0.10;;;16.20;98.70;;;;;;5071566;28;20025;-75
2021/08/10 06:11:12;;;;;;;0.15;0.15;;;16.20;98.70;;;;;;5070286;28;20056;-77
2021/08/10 06:13:38;;;;;;;0.10;0.10;;;16.30;98.60;;;;;;5070877;28;20472;-75
2021/08/10 06:16:04;;;;;;;0.10;0.10;;;16.30;98.60;;;;;;5071732;28;20063;-75
2021/08/10 06:18:30;;;;;;;0.10;0.10;;;16.30;98.60;;;;;;5070397;28;20035;-75
2021/08/10 06:20:55;;;;;;;0.10;0.10;;;16.30;98.60;;;;;;5069781;28;20099;-75
2021/08/10 06:23:22;;;;;;;0.10;0.10;;;16.30;98.60;;;;;;5071435;28;20052;-75
2021/08/10 06:25:47;;;;;;;0.20;0.20;;;16.30;98.50;;;;;;5071190;28;20413;-75
2021/08/10 06:28:13;;;;;;;0.10;0.10;;;16.40;98.50;;;;;;5070333;28;20111;-75
2021/08/10 06:30:39;;;;;;;0.10;0.10;;;16.40;98.40;;;;;;5070983;28;20049;-75
2021/08/10 06:33:05;;;;;;;0.15;0.13;;;16.40;98.40;;;;;;5070282;28;20060;-75
2021/08/10 06:35:30;;;;;;;0.10;0.10;;;16.50;98.30;;;;;;5069987;28;20021;-75
2021/08/10 06:37:56;;;;;;;0.20;0.20;;;16.70;98.20;;;;;;5069730;28;20027;-75
2021/08/10 06:40:22;;;;;;;0.10;0.10;;;16.80;98.00;;;;;;5071335;28;20120;-75
2021/08/10 06:42:47;;;;;;;0.22;0.20;;;16.80;97.90;;;;;;5069610;28;20057;-75
2021/08/10 06:45:13;;;;;;;0.73;0.10;;;17.00;97.80;;;;;;5071469;28;20452;-75
2021/08/10 06:47:39;;;;;;;0.28;0.28;;;17.00;97.70;;;;;;5069524;28;20052;-75
2021/08/10 06:50:05;;;;;;;0.10;0.10;;;17.10;97.70;;;;;;5070246;28;20115;-75
2021/08/10 06:52:31;;;;;;;0.17;0.17;;;17.10;97.60;;;;;;5054911;28;20060;-75
2021/08/10 06:54:56;;;;;;;0.10;0.10;;;17.10;97.50;;;;;;5074432;28;20477;-75
2021/08/10 06:57:23;;;;;;;0.20;0.20;;;17.20;97.50;;;;;;5075354;28;20016;-75
2021/08/10 06:59:48;;;;;;;0.20;0.20;;;17.20;97.50;;;;;;5074587;28;20524;-75
2021/08/10 07:02:14;;;;;;;0.28;0.20;;;17.20;97.50;;;;;;5074924;28;20036;-75
2021/08/10 07:04:39;;;;;;;0.20;0.20;;;17.20;97.50;;;;;;5074039;28;20060;-75
2021/08/10 07:07:06;;;;;;;0.10;0.10;;;17.30;97.40;;;;;;5074150;28;20091;-75
2021/08/10 07:09:31;;;;;;;0.20;0.20;;;17.30;97.40;;;;;;5075011;28;20043;-75
2021/08/10 07:11:57;;;;;;;0.20;0.20;;;17.30;97.40;;;;;;5072846;28;20024;-75
2021/08/10 07:14:24;;;;;;;0.10;0.10;;;17.30;97.40;;;;;;5073690;28;20028;-76
2021/08/10 07:16:50;;;;;;;0.30;0.15;;;17.30;97.40;;;;;;5072611;28;20035;-75
2021/08/10 07:19:16;;;;;;;0.10;0.10;;;17.40;97.40;;;;;;5075090;28;20025;-75
2021/08/10 07:21:43;;;;;;;0.10;0.10;;;17.40;97.30;;;;;;5072934;28;20081;-75
2021/08/10 07:24:09;;;;;;;0.20;0.20;;;17.50;97.30;;;;;;5073163;28;20049;-75
2021/08/10 07:26:35;;;;;;;0.20;0.20;;;17.50;97.20;;;;;;5074494;28;20098;-75
2021/08/10 07:29:02;;;;;;;0.13;0.13;;;17.60;97.20;;;;;;5072893;28;20100;-75
2021/08/10 07:31:28;;;;;;;0.10;0.10;;;17.60;97.10;;;;;;5074454;28;20075;-75
2021/08/10 07:33:54;;;;;;;0.10;0.10;;;17.70;97.10;;;;;;5072651;28;20433;-76
2021/08/10 07:36:20;;;;;;;0.30;0.20;;;17.70;97.10;;;;;;5073260;28;20023;-76
2021/08/10 07:38:46;;;;;;;0.13;0.13;;;17.60;97.00;;;;;;5073637;28;20103;-76
2021/08/10 07:41:12;;;;;;;0.10;0.10;;;17.60;97.10;;;;;;5074458;28;20067;-76
2021/08/10 07:43:38;;;;;;;0.45;0.20;;;17.60;97.20;;;;;;5073030;28;20112;-75
2021/08/10 07:46:04;;;;;;;0.20;0.20;;;17.60;97.20;;;;;;5072256;28;20111;-76
2021/08/10 07:48:31;;;;;;;0.10;0.10;;;17.50;97.30;;;;;;5074487;28;20068;-75
2021/08/10 07:50:56;;;;;;;0.20;0.20;;;17.50;97.20;;;;;;5072367;28;20020;-76
2021/08/10 07:53:23;;;;;;;0.20;0.20;;;17.60;97.20;;;;;;5072582;28;20017;-76
2021/08/10 07:55:49;;;;;;;0.20;0.20;;;17.80;97.10;;;;;;5072157;28;20028;-76
2021/08/10 07:58:15;;;;;;;0.13;0.13;;;17.80;96.90;;;;;;5074231;28;20060;-76
2021/08/10 08:00:41;;;;;;;0.10;0.10;;;17.90;96.80;;;;;;5073302;28;20033;-76
2021/08/10 08:03:07;;;;;;;0.10;0.10;;;18.00;96.70;;;;;;5073603;28;20065;-75
2021/08/10 08:05:33;;;;;;;0.10;0.10;;;18.00;96.70;;;;;;5072533;28;20024;-76
2021/08/10 08:07:59;;;;;;;0.30;0.30;;;17.90;96.80;;;;;;5072099;28;20102;-75
2021/08/10 08:10:25;;;;;;;0.45;0.20;;;17.80;96.90;;;;;;5072571;28;20029;-74
2021/08/10 08:12:51;;;;;;;0.20;0.20;;;17.80;97.00;;;;;;5072903;28;20028;-75
2021/08/10 08:15:17;;;;;;;0.20;0.20;;;17.80;97.00;;;;;;5073537;28;20028;-75
2021/08/10 08:17:43;;;;;;;0.20;0.20;;;17.90;97.00;;;;;;5072881;28;20078;-75
2021/08/10 08:20:10;;;;;;;0.20;0.20;;;17.90;96.90;;;;;;5073648;28;20036;-75
2021/08/10 08:22:35;;;;;;;0.20;0.20;;;18.00;96.90;;;;;;5072961;28;20032;-75
2021/08/10 08:25:01;;;;;;;0.20;0.10;;;18.00;96.80;;;;;;5071071;28;20056;-74
2021/08/10 08:27:27;;;;;;;0.20;0.20;;;18.10;96.70;;;;;;5073304;28;20383;-75
2021/08/10 08:29:52;;;;;;;0.15;0.10;;;18.10;96.70;;;;;;5072451;28;20066;-75
2021/08/10 08:32:18;;;;;;;0.10;0.10;;;18.10;96.70;;;;;;5071945;28;20111;-74
2021/08/10 08:34:44;;;;;;;0.20;0.20;;;18.10;96.70;;;;;;5071568;28;20377;-75
2021/08/10 08:37:10;;;;;;;0.10;0.10;;;18.10;96.70;;;;;;5071977;28;20354;-75
2021/08/10 08:39:37;;;;;;;0.20;0.20;;;18.10;96.70;;;;;;5073342;28;20028;-74
2021/08/10 08:42:03;;;;;;;0.40;0.20;;;18.10;96.70;;;;;;5071360;28;20546;-74
2021/08/10 08:44:36;;;;;;;0.85;0.25;;;18.10;96.70;;;;;;5073316;28;20020;-75
2021/08/10 08:47:06;;;;;;;0.30;0.20;;;18.10;96.80;;;;;;5072315;28;20025;-75
2021/08/10 08:49:33;;;;;;;0.10;0.10;;;18.10;96.80;;;;;;5073133;28;20039;-75
2021/08/10 08:52:01;;;;;;;0.20;0.20;;;18.10;96.80;;;;;;5070762;28;20021;-75
2021/08/10 08:54:28;;;;;;;0.20;0.20;;;18.10;96.90;;;;;;5073315;28;20029;-75
2021/08/10 08:56:54;;;;;;;0.30;0.25;;;18.10;96.90;;;;;;5070497;28;20038;-75
2021/08/10 08:59:22;;;;;;;0.10;0.10;;;18.20;96.80;;;;;;5071500;28;20017;-75
2021/08/10 09:01:49;;;;;;;0.20;0.20;;;18.40;96.60;;;;;;5072154;28;20029;-76
2021/08/10 09:04:15;;;;;;;0.13;0.13;;;18.60;96.40;;;;;;5072828;28;20074;-76
2021/08/10 09:06:41;;;;;;;0.10;0.10;;;18.70;96.20;;;;;;5071676;28;20111;-75
2021/08/10 09:09:21;;;;;;;0.20;0.20;;;18.80;96.10;;;;;;5070796;28;20540;-75
2021/08/10 09:11:52;;;;;;;0.20;0.20;;;18.80;96.00;;;;;;5071644;28;20465;-76
2021/08/10 09:14:19;;;;;;;0.10;0.10;;;18.80;96.00;;;;;;5071166;28;20021;-76
2021/08/10 09:17:04;;;;;;;0.20;0.20;;;18.70;96.10;;;;;;5070959;28;20040;-75
2021/08/10 09:19:54;;;;;;;0.10;0.10;;;18.70;96.20;;;;;;5071208;28;20460;-75
2021/08/10 09:22:29;;;;;;;0.10;0.10;;;18.70;96.20;;;;;;5071257;28;20384;-75
2021/08/10 09:25:03;;;;;;;0.10;0.10;;;18.70;96.20;;;;;;5071320;28;20136;-76
2021/08/10 09:27:34;;;;;;;0.10;0.10;;;18.80;96.20;;;;;;5071088;28;20028;-75
2021/08/10 09:30:02;;;;;;;0.10;0.10;;;18.80;96.10;;;;;;5070343;28;20024;-75
2021/08/10 09:32:28;;;;;;;0.10;0.10;;;18.80;96.10;;;;;;5071933;28;20024;-75
2021/08/10 09:35:07;;;;;;;0.10;0.10;;;18.70;96.10;;;;;;5071508;28;20020;-75
2021/08/10 09:37:33;;;;;;;0.10;0.10;;;18.70;96.20;;;;;;5070869;28;20025;-75
2021/08/10 09:39:59;;;;;;;0.10;0.10;;;18.70;96.20;;;;;;5070987;28;20082;-75
2021/08/10 09:42:26;;;;;;;0.10;0.10;;;18.70;96.20;;;;;;5070903;28;20437;-75
2021/08/10 09:45:02;;;;;;;0.15;0.10;;;18.70;96.30;;;;;;5071455;28;20025;-76
2021/08/10 09:47:35;;;;;;;0.10;0.10;;;18.70;96.30;;;;;;5071754;28;20063;-75
2021/08/10 09:50:01;;;;;;;0.10;0.10;;;18.70;96.30;;;;;;5071574;28;20385;-75
2021/08/10 09:52:29;;;;;;;0.13;0.13;;;18.70;96.30;;;;;;5071969;28;20024;-75
2021/08/10 09:55:07;;;;;;;0.30;0.10;;;18.80;96.20;;;;;;5070046;28;20352;-75
2021/08/10 09:57:34;;;;;;;0.20;0.20;;;18.70;96.20;;;;;;5070690;28;20030;-75
2021/08/10 09:59:59;;;;;;;0.10;0.10;;;18.80;96.30;;;;;;5071359;28;20505;-76
2021/08/10 10:02:26;;;;;;;0.10;0.10;;;18.60;96.30;;;;;;5071673;28;20064;-75
2021/08/10 10:04:54;;;;;;;0.20;0.20;;;18.30;96.70;;;;;;5070954;28;20027;-75
2021/08/10 10:07:20;;;;;;;0.45;0.17;;;18.20;97.00;;;;;;5071588;28;20021;-76
2021/08/10 10:09:46;;;;;;;0.20;0.20;;;18.20;97.00;;;;;;5070563;28;20033;-75
2021/08/10 10:12:13;;;;;;;0.50;0.10;;;18.20;97.00;;;;;;5071174;28;20024;-75
2021/08/10 10:14:40;;;;;;;0.17;0.17;;;18.30;97.00;;;;;;5071765;28;20070;-75
2021/08/10 10:17:09;;;;;;;0.10;0.10;;;18.40;96.90;;;;;;5071123;28;20036;-75
2021/08/10 10:19:36;;;;;;;0.10;0.10;;;18.60;96.70;;;;;;5070434;28;20119;-75
2021/08/10 10:22:14;;;;;;;0.52;0.10;;;18.60;96.70;;;;;;5071152;28;20025;-76
2021/08/10 10:24:46;;;;;;;0.20;0.20;;;18.60;96.70;;;;;;5070096;28;20083;-75
2021/08/10 10:27:12;;;;;;;0.10;0.10;;;18.60;96.70;;;;;;5070707;28;20029;-75
2021/08/10 10:29:40;;;;;;;0.22;0.20;;;18.70;96.60;;;;;;5074432;28;20021;-75
2021/08/10 10:32:06;;;;;;;0.10;0.10;;;18.70;96.60;;;;;;5073825;28;20205;-75
2021/08/10 10:34:32;;;;;;;0.00;0.00;;;18.80;96.50;;;;;;5075597;28;20029;-75
2021/08/10 10:36:59;;;;;;;0.10;0.10;;;18.90;96.70;;;;;;5073638;28;20023;-75
2021/08/10 10:39:34;;;;;;;0.20;0.20;;;18.90;96.40;;;;;;5075437;28;20460;-75
2021/08/10 10:42:02;;;;;;;0.13;0.13;;;19.00;96.40;;;;;;5074542;28;20029;-76
2021/08/10 10:44:39;;;;;;;0.10;0.10;;;19.10;96.20;;;;;;5075406;28;20025;-75
2021/08/10 10:47:20;;;;;;;0.17;0.17;;;19.30;96.10;;;;;;5072967;28;20171;-75
2021/08/10 10:49:47;;;;;;;0.10;0.10;;;19.50;96.00;;;;;;5074198;28;20115;-74
2021/08/10 10:52:16;;;;;;;0.20;0.20;;;19.60;95.80;;;;;;5073273;28;20047;-75
2021/08/10 10:54:46;;;;;;;0.10;0.10;;;19.80;95.60;;;;;;5074937;28;20039;-75
2021/08/10 10:57:35;;;;;;;0.20;0.20;;;19.90;95.50;;;;;;5074649;28;20028;-75
2021/08/10 11:00:04;;;;;;;0.20;0.20;;;20.00;95.50;;;;;;5069212;28;20549;-75
2021/08/10 11:02:38;;;;;;;0.20;0.20;;;20.00;95.40;;;;;;5075149;28;20025;-75
2021/08/10 11:05:07;;;;;;;0.10;0.10;;;20.00;95.50;;;;;;5073342;28;20068;-75
2021/08/10 11:07:37;;;;;;;0.20;0.20;;;20.10;95.40;;;;;;5073739;28;20024;-74
2021/08/10 11:10:07;;;;;;;0.03;0.03;;;20.20;95.40;;;;;;5073161;28;20129;-75
2021/08/10 11:12:44;;;;;;;0.20;0.20;;;20.30;95.20;;;;;;5073660;28;20082;-75
2021/08/10 11:15:20;;;;;;;0.38;0.30;;;20.50;95.00;;;;;;5074518;28;20110;-75
2021/08/10 11:18:09;;;;;;;0.30;0.30;;;20.60;94.90;;;;;;5073613;28;20025;-75
2021/08/10 11:20:36;;;;;;;1.73;0.60;;;20.70;94.80;;;;;;5065401;28;20040;-76
2021/08/10 11:23:26;;;;;;;0.70;0.40;;;20.80;94.60;;;;;;5072479;28;20039;-76
2021/08/10 11:25:58;;;;;;;0.80;0.70;;;20.80;94.50;;;;;;5073630;28;20033;-75
2021/08/10 11:28:26;;;;;;;2.08;1.10;;;20.80;94.50;;;;;;5073506;28;20024;-75
2021/08/10 11:30:54;;;;;;;3.20;2.00;;;20.90;94.30;;;;;;5074096;28;20035;-75
2021/08/10 11:33:36;;;;;;;4.40;2.70;;;21.00;94.00;;;;;;5074880;28;20153;-76
2021/08/10 11:36:13;;;;;;;5.00;2.78;;;21.10;93.50;;;;;;5072646;28;20149;-75
2021/08/10 11:38:48;;;;;;;6.93;3.40;;;21.10;93.50;;;;;;5072589;28;20027;-76
2021/08/10 11:41:38;;;;;;;5.68;3.38;;;21.00;92.80;;;;;;5073100;28;20037;-75
2021/08/10 11:44:22;;;;;;;6.15;3.70;;;20.90;92.40;;;;;;5068339;28;20033;-74
2021/08/10 11:46:50;;;;;;;7.55;3.38;;;21.00;92.20;;;;;;5073144;28;20024;-76
2021/08/10 11:49:19;;;;;;;8.05;3.20;;;20.90;91.40;;;;;;5072720;28;20405;-75
2021/08/10 11:51:46;;;;;;;5.35;2.92;;;20.80;91.30;;;;;;5074251;28;20021;-75
2021/08/10 11:54:13;;;;;;;6.75;3.35;;;20.70;91.10;;;;;;5072280;28;20024;-75
2021/08/10 11:56:40;;;;;;;7.00;3.42;;;20.70;91.40;;;;;;5074161;28;20027;-74
2021/08/10 11:59:09;;;;;;;7.05;3.60;;;20.80;91.10;;;;;;5072232;28;20381;-75
2021/08/10 12:01:37;;;;;;;8.38;3.97;;;20.80;90.70;;;;;;5072625;28;20033;-75
2021/08/10 12:04:10;;;;;;;4.35;2.90;;;20.80;90.80;;;;;;5073363;28;20024;-75
2021/08/10 12:06:36;;;;;;;5.38;3.13;;;20.90;90.90;;;;;;5072545;28;20325;-75
2021/08/10 12:09:06;;;;;;;4.85;2.67;;;20.90;90.70;;;;;;5073516;28;20025;-75
2021/08/10 12:11:32;;;;;;;6.53;3.08;;;21.10;90.20;;;;;;5073918;28;20032;-75
2021/08/10 12:14:17;;;;;;;3.28;2.17;;;21.30;89.90;;;;;;5072172;28;20027;-79
2021/08/10 12:17:15;;;;;;;4.95;2.65;;;21.60;90.00;;;;;;5072688;28;20409;-76
2021/08/10 12:19:49;;;;;;;6.63;3.13;;;21.80;89.20;;;;;;5072059;28;20040;-76
2021/08/10 12:22:28;;;;;;;6.43;3.33;;;21.90;87.90;;;;;;5071877;28;20055;-75
2021/08/10 12:24:59;;;;;;;5.18;2.78;;;21.70;87.40;;;;;;5073341;28;20134;-75
2021/08/10 12:27:30;;;;;;;9.03;3.13;;;21.60;87.70;;;;;;5056015;28;20453;-75
2021/08/10 12:29:56;;;;;;;5.63;3.30;;;21.50;87.90;;;;;;5072412;28;20800;-75
2021/08/10 12:32:27;;;;;;;4.68;2.75;;;21.50;87.40;;;;;;5073914;28;20025;-75
2021/08/10 12:34:55;;;;;;;5.57;3.00;;;21.60;87.30;;;;;;5074721;28;20021;-75
2021/08/10 12:37:31;;;;;;;6.35;3.08;;;21.70;86.30;;;;;;5073033;28;20032;-77
2021/08/10 12:39:57;;;;;;;7.63;2.92;;;21.90;86.60;;;;;;5068801;28;20107;-75
2021/08/10 12:42:24;;;;;;;5.30;2.78;;;22.00;85.90;;;;;;5071356;28;20017;-75
2021/08/10 12:44:52;;;;;;;5.93;3.00;;;22.00;84.70;;;;;;5073476;28;20090;-75
2021/08/10 12:47:33;;;;;;;6.20;3.05;;;21.90;85.10;;;;;;5071252;28;20074;-75
2021/08/10 12:50:02;;;;;;;5.93;2.92;;;21.90;85.20;;;;;;5070948;28;20020;-75
2021/08/10 12:52:45;;;;;;;6.88;2.92;;;21.80;85.70;;;;;;5071713;28;20029;-76
2021/08/10 12:55:11;;;;;;;4.40;3.03;;;21.90;85.90;;;;;;5071086;28;20486;-76